Time;durP1;ratioP1;P1;durP2;ratioP2;P2;SDS_P1;SDS_P2;PMS_P1;PMS_P2;Temp;Humidity;BMP_temperature;BMP_pressure;BME280_temperature;BME280_humidity;BME280_pressure;Samples;Min_cycle;Max_cycle;Signal;HPM_P1;HPM_P2
2022/12/11 00:00:51;;;;;;;92.37;41.37;;;0.90;1.00;;;;;;5042000;28;20202;-68
2022/12/11 00:03:18;;;;;;;82.37;39.73;;;0.90;1.00;;;;;;5023894;28;20220;-68
2022/12/11 00:05:46;;;;;;;92.47;39.90;;;0.90;1.00;;;;;;5035872;28;20335;-68
2022/12/11 00:08:13;;;;;;;86.33;37.67;;;1.00;1.00;;;;;;5036127;28;20196;-67
2022/12/11 00:10:48;;;;;;;93.43;42.27;;;1.00;1.00;;;;;;5006667;28;20208;-67
2022/12/11 00:13:15;;;;;;;99.27;43.37;;;1.00;1.00;;;;;;5016165;28;20196;-68
2022/12/11 00:15:42;;;;;;;92.07;39.23;;;0.90;1.00;;;;;;5016786;28;20197;-67
2022/12/11 00:18:12;;;;;;;101.80;44.27;;;0.90;1.00;;;;;;5026070;28;20195;-68
2022/12/11 00:20:40;;;;;;;111.40;43.07;;;0.90;1.00;;;;;;5016865;28;20750;-67
2022/12/11 00:23:07;;;;;;;104.00;43.77;;;0.80;1.00;;;;;;5021753;28;20222;-69
2022/12/11 00:25:34;;;;;;;102.33;42.07;;;0.90;1.00;;;;;;5009703;28;20691;-67
2022/12/11 00:28:01;;;;;;;99.80;41.10;;;0.90;1.00;;;;;;5017821;28;20314;-67
2022/12/11 00:30:28;;;;;;;95.13;39.97;;;0.90;1.00;;;;;;5001840;28;20235;-67
2022/12/11 00:32:54;;;;;;;91.57;41.07;;;0.90;1.00;;;;;;5014725;28;20228;-67
2022/12/11 00:35:21;;;;;;;99.60;43.90;;;0.90;1.00;;;;;;5016732;28;20280;-68
2022/12/11 00:37:48;;;;;;;87.93;40.37;;;0.90;1.00;;;;;;5008985;28;20212;-68
2022/12/11 00:40:15;;;;;;;115.40;49.93;;;1.00;1.00;;;;;;5018451;28;20220;-68
2022/12/11 00:42:42;;;;;;;100.23;44.57;;;1.00;1.00;;;;;;5020974;28;20228;-68
2022/12/11 00:45:10;;;;;;;100.90;42.77;;;1.00;1.00;;;;;;5020159;28;20604;-68
2022/12/11 00:47:37;;;;;;;99.57;43.30;;;1.00;1.00;;;;;;5019988;28;20195;-69
2022/12/11 00:50:05;;;;;;;118.57;44.57;;;1.00;1.00;;;;;;5001255;28;20451;-68
2022/12/11 00:52:32;;;;;;;105.20;42.40;;;1.00;1.00;;;;;;5001632;28;20199;-67
2022/12/11 00:54:59;;;;;;;107.73;42.33;;;1.00;1.00;;;;;;5019620;28;20195;-68
2022/12/11 00:57:26;;;;;;;95.97;40.93;;;1.00;1.00;;;;;;5034595;28;20203;-68
2022/12/11 00:59:53;;;;;;;101.50;43.03;;;0.90;1.00;;;;;;5019018;28;20568;-68
2022/12/11 01:02:20;;;;;;;116.27;47.17;;;0.90;1.00;;;;;;5034454;28;20208;-67
2022/12/11 01:04:47;;;;;;;127.77;48.20;;;0.90;1.00;;;;;;4990118;28;20224;-68
2022/12/11 01:07:14;;;;;;;121.27;49.27;;;0.90;1.00;;;;;;5019610;28;20245;-66
2022/12/11 01:12:27;;;;;;;104.67;43.33;;;0.80;1.00;;;;;;5018341;28;20243;-67
2022/12/11 01:14:54;;;;;;;112.13;44.07;;;0.90;1.00;;;;;;5019580;28;20195;-66
2022/12/11 01:17:21;;;;;;;101.10;40.73;;;0.90;1.00;;;;;;5020476;28;20193;-68
2022/12/11 01:19:48;;;;;;;117.20;40.90;;;0.80;1.00;;;;;;5035190;28;20540;-68
2022/12/11 01:22:15;;;;;;;128.53;44.87;;;0.70;1.00;;;;;;5036378;28;20668;-70
2022/12/11 01:24:42;;;;;;;126.37;45.30;;;0.80;1.00;;;;;;5034388;28;20208;-68
2022/12/11 01:27:09;;;;;;;137.10;49.17;;;0.80;1.00;;;;;;5011260;28;20192;-68
2022/12/11 01:29:36;;;;;;;134.63;51.13;;;0.80;1.00;;;;;;5006784;28;20655;-69
2022/12/11 01:32:03;;;;;;;131.67;48.00;;;0.80;1.00;;;;;;5023640;28;20770;-69
2022/12/11 01:34:30;;;;;;;134.77;48.00;;;0.80;1.00;;;;;;5004388;28;20225;-68
2022/12/11 01:36:58;;;;;;;146.63;53.47;;;0.80;1.00;;;;;;5016452;28;20267;-68
2022/12/11 01:39:25;;;;;;;106.57;40.67;;;0.90;1.00;;;;;;5017378;28;20189;-67
2022/12/11 01:41:59;;;;;;;133.00;47.57;;;0.90;1.00;;;;;;5016582;28;20191;-67
2022/12/11 01:44:26;;;;;;;129.03;47.60;;;0.90;1.00;;;;;;5016332;28;20227;-68
2022/12/11 01:46:53;;;;;;;112.20;44.90;;;0.80;1.00;;;;;;5018341;28;20275;-68
2022/12/11 01:49:25;;;;;;;141.10;48.40;;;0.80;1.00;;;;;;5016641;28;20208;-68
2022/12/11 01:51:57;;;;;;;131.17;51.20;;;0.80;1.00;;;;;;5019262;28;20547;-68
2022/12/11 01:54:27;;;;;;;115.23;46.20;;;0.80;1.00;;;;;;5018535;28;20200;-68
2022/12/11 01:56:57;;;;;;;117.93;47.23;;;0.80;1.00;;;;;;5019157;28;20588;-69
2022/12/11 01:59:27;;;;;;;93.80;40.67;;;0.80;1.00;;;;;;5001424;28;20608;-68
2022/12/11 02:02:11;;;;;;;114.80;43.83;;;0.80;1.00;;;;;;5015613;28;20650;-69
2022/12/11 02:04:40;;;;;;;112.37;45.63;;;0.80;1.00;;;;;;5021353;28;20607;-69
2022/12/11 02:07:08;;;;;;;113.90;47.40;;;0.70;1.00;;;;;;5017103;28;20315;-69
2022/12/11 02:09:39;;;;;;;111.43;42.80;;;0.80;1.00;;;;;;5014618;28;20205;-69
2022/12/11 02:12:12;;;;;;;116.53;45.70;;;0.80;1.00;;;;;;5018250;28;20216;-69
2022/12/11 02:15:10;;;;;;;132.93;52.63;;;0.80;1.00;;;;;;5007763;28;20247;-69
2022/12/11 02:18:18;;;;;;;160.43;58.93;;;0.70;1.00;;;;;;5012998;28;20204;-69
2022/12/11 02:20:54;;;;;;;128.03;49.43;;;0.70;1.00;;;;;;4907534;29;20203;-68
2022/12/11 02:23:53;;;;;;;129.13;50.47;;;0.60;1.00;;;;;;5002382;28;20212;-68
2022/12/11 02:26:28;;;;;;;130.37;48.60;;;0.60;1.00;;;;;;4985221;28;20650;-69
2022/12/11 02:29:02;;;;;;;136.50;50.63;;;0.60;1.00;;;;;;5015827;28;20227;-68
2022/12/11 02:31:45;;;;;;;125.10;46.27;;;0.50;1.00;;;;;;5000383;28;20324;-66
2022/12/11 02:34:24;;;;;;;127.53;45.63;;;0.50;1.00;;;;;;5004717;28;20224;-67
2022/12/11 02:36:56;;;;;;;133.33;45.77;;;0.50;1.00;;;;;;5034417;28;20204;-66
2022/12/11 02:39:25;;;;;;;133.33;48.23;;;0.50;1.90;;;;;;5032921;28;20275;-68
2022/12/11 02:41:53;;;;;;;120.47;44.30;;;0.60;3.50;;;;;;5016406;28;20184;-69
2022/12/11 02:44:25;;;;;;;126.23;43.03;;;0.60;1.60;;;;;;5020160;28;20204;-68
2022/12/11 02:46:53;;;;;;;116.57;38.10;;;0.50;1.40;;;;;;5020986;28;20204;-68
2022/12/11 02:49:22;;;;;;;136.07;45.80;;;0.50;1.00;;;;;;5008917;28;20299;-69
2022/12/11 02:51:51;;;;;;;116.63;41.50;;;0.50;1.30;;;;;;5002493;28;20295;-69
2022/12/11 02:54:27;;;;;;;121.47;40.47;;;0.50;10.10;;;;;;5007324;28;20225;-69
2022/12/11 02:56:58;;;;;;;113.67;44.27;;;0.50;1.00;;;;;;5020688;28;20500;-67
2022/12/11 02:59:31;;;;;;;116.57;43.00;;;0.40;4.40;;;;;;5020918;28;20224;-67
2022/12/11 03:01:58;;;;;;;121.67;41.63;;;0.40;6.00;;;;;;5003416;28;20279;-66
2022/12/11 03:04:25;;;;;;;113.50;41.40;;;0.50;15.30;;;;;;5003290;28;20634;-66
2022/12/11 03:06:55;;;;;;;114.40;41.10;;;0.50;14.10;;;;;;5034118;28;20258;-68
2022/12/11 03:09:22;;;;;;;101.73;36.60;;;0.40;16.40;;;;;;5040198;28;20206;-66
2022/12/11 03:11:49;;;;;;;100.80;37.83;;;0.30;5.90;;;;;;5023800;28;20192;-67
2022/12/11 03:14:16;;;;;;;105.83;38.80;;;0.30;14.40;;;;;;5041687;28;20282;-68
2022/12/11 03:17:18;;;;;;;106.83;38.13;;;0.30;44.00;;;;;;5030815;28;20195;-68
2022/12/11 03:20:03;;;;;;;109.90;38.10;;;0.30;31.80;;;;;;5042223;28;20834;-69
2022/12/11 03:22:37;;;;;;;113.70;39.67;;;0.40;21.10;;;;;;5041041;28;20199;-68
2022/12/11 03:25:25;;;;;;;118.93;41.90;;;0.30;15.00;;;;;;5031852;28;20210;-68
2022/12/11 03:27:58;;;;;;;102.00;36.40;;;0.30;14.90;;;;;;5042197;28;20198;-69
2022/12/11 03:30:27;;;;;;;90.70;36.60;;;0.40;15.00;;;;;;5038430;28;20195;-68
2022/12/11 03:33:03;;;;;;;85.97;32.57;;;0.30;1.60;;;;;;5041785;28;20196;-68
2022/12/11 03:35:39;;;;;;;58.03;25.00;;;0.30;1.00;;;;;;5022512;28;20223;-68
2022/12/11 03:38:20;;;;;;;89.93;34.97;;;0.40;1.00;;;;;;5019662;28;20199;-68
2022/12/11 03:40:52;;;;;;;66.50;25.50;;;0.50;1.00;;;;;;5040687;28;20637;-68
2022/12/11 03:43:21;;;;;;;74.47;29.40;;;0.40;1.00;;;;;;5024980;28;20192;-68
2022/12/11 03:45:50;;;;;;;77.30;31.60;;;0.50;1.00;;;;;;5038077;28;20598;-69
2022/12/11 03:48:19;;;;;;;83.13;32.53;;;0.60;1.00;;;;;;5056561;28;20663;-68
2022/12/11 03:50:48;;;;;;;81.90;33.17;;;0.60;1.00;;;;;;5021951;28;20269;-68
2022/12/11 03:53:17;;;;;;;69.77;30.37;;;0.60;1.00;;;;;;5022636;28;20204;-67
2022/12/11 03:55:47;;;;;;;68.93;30.47;;;0.60;1.00;;;;;;5037500;28;20685;-63
2022/12/11 03:58:13;;;;;;;71.53;30.20;;;0.60;1.00;;;;;;5029562;28;20204;-63
2022/12/11 04:00:40;;;;;;;68.53;29.33;;;0.50;1.00;;;;;;5040060;28;20193;-63
2022/12/11 04:03:14;;;;;;;74.17;27.83;;;0.50;1.00;;;;;;5039391;28;20579;-63
2022/12/11 04:05:44;;;;;;;190.97;74.83;;;0.50;1.00;;;;;;5035511;28;20319;-62
2022/12/11 04:08:11;;;;;;;92.77;38.20;;;0.50;1.00;;;;;;5006703;28;20227;-64
2022/12/11 04:10:40;;;;;;;109.03;42.77;;;0.50;1.00;;;;;;5019566;28;20193;-62
2022/12/11 04:13:08;;;;;;;68.63;29.93;;;0.50;1.00;;;;;;5017731;28;20484;-63
2022/12/11 04:15:36;;;;;;;73.37;29.20;;;0.60;1.00;;;;;;5021080;28;20203;-63
2022/12/11 04:26:25;;;;;;;51.47;23.87;;;0.70;1.00;;;;;;5021115;28;20224;-63
2022/12/11 04:28:51;;;;;;;59.43;26.43;;;0.70;1.00;;;;;;5019691;28;20196;-64
2022/12/11 04:31:20;;;;;;;61.20;26.70;;;0.70;1.00;;;;;;5018224;28;20193;-63
2022/12/11 04:33:48;;;;;;;63.03;29.63;;;0.80;1.00;;;;;;5009286;28;20295;-63
2022/12/11 04:36:16;;;;;;;64.13;27.20;;;0.80;1.00;;;;;;5019699;28;20196;-62
2022/12/11 04:38:43;;;;;;;76.97;31.77;;;0.80;1.00;;;;;;5001630;28;20193;-62
2022/12/11 04:41:12;;;;;;;80.93;31.70;;;0.70;1.00;;;;;;4999793;28;20284;-65
2022/12/11 04:43:40;;;;;;;77.43;32.77;;;0.60;1.00;;;;;;5018456;28;20208;-65
2022/12/11 04:46:10;;;;;;;79.43;33.80;;;0.50;1.00;;;;;;5019409;28;20197;-64
2022/12/11 04:48:38;;;;;;;68.50;29.13;;;0.50;1.00;;;;;;5020240;28;20584;-64
2022/12/11 04:51:06;;;;;;;82.57;33.10;;;0.40;1.00;;;;;;5007360;28;20207;-63
2022/12/11 04:53:34;;;;;;;85.90;35.40;;;0.40;1.00;;;;;;5018072;28;20660;-63
2022/12/11 04:56:04;;;;;;;91.50;34.50;;;0.40;1.00;;;;;;5017989;28;20209;-66
2022/12/11 04:58:31;;;;;;;90.67;32.73;;;0.30;1.00;;;;;;5018238;28;20212;-63
2022/12/11 05:00:58;;;;;;;95.90;35.87;;;0.30;1.00;;;;;;5006839;28;20709;-63
2022/12/11 05:03:25;;;;;;;92.43;34.90;;;0.30;1.00;;;;;;5018942;28;20217;-64
2022/12/11 05:05:53;;;;;;;104.17;36.80;;;0.30;1.00;;;;;;5024874;28;20236;-63
2022/12/11 05:08:20;;;;;;;91.23;35.97;;;0.40;1.00;;;;;;5037816;28;20275;-63
2022/12/11 05:10:58;;;;;;;100.70;36.13;;;0.30;1.00;;;;;;5023886;28;20291;-64
2022/12/11 05:13:26;;;;;;;95.77;36.03;;;0.30;1.00;;;;;;5037809;28;20731;-63
2022/12/11 05:15:54;;;;;;;100.13;36.67;;;0.20;4.60;;;;;;5024742;28;20230;-64
2022/12/11 05:18:21;;;;;;;96.50;34.00;;;0.30;12.70;;;;;;5037322;28;20215;-63
2022/12/11 05:21:03;;;;;;;113.87;38.63;;;0.30;12.40;;;;;;5032639;28;20279;-63
2022/12/11 05:23:32;;;;;;;100.63;37.20;;;0.30;19.30;;;;;;5036604;28;20679;-63
2022/12/11 05:26:05;;;;;;;103.57;36.87;;;0.40;29.90;;;;;;5036348;28;20621;-63
2022/12/11 05:28:34;;;;;;;125.33;41.57;;;0.30;25.80;;;;;;5039437;28;20726;-63
2022/12/11 05:31:04;;;;;;;127.70;41.17;;;0.40;38.70;;;;;;5036813;28;20242;-63
2022/12/11 05:33:33;;;;;;;118.97;38.13;;;0.50;45.10;;;;;;5040801;28;20222;-63
2022/12/11 05:36:00;;;;;;;116.13;40.37;;;0.50;46.80;;;;;;5037000;28;20274;-65
2022/12/11 05:38:27;;;;;;;124.07;39.03;;;0.40;43.00;;;;;;5025628;28;20202;-64
2022/12/11 05:41:06;;;;;;;119.00;40.87;;;0.50;60.30;;;;;;5019647;28;20196;-65
2022/12/11 05:43:35;;;;;;;124.87;43.93;;;0.50;45.20;;;;;;5040034;28;20203;-64
2022/12/11 05:46:13;;;;;;;125.77;40.50;;;0.30;57.10;;;;;;5026775;28;20234;-65
2022/12/11 05:49:09;;;;;;;119.97;38.20;;;0.30;63.50;;;;;;5026851;28;20196;-67
2022/12/11 05:51:58;;;;;;;123.30;37.77;;;0.20;99.90;;;;;;5039983;28;20200;-64
2022/12/11 05:54:37;;;;;;;119.90;39.07;;;0.30;99.90;;;;;;5021478;28;20430;-65
2022/12/11 05:57:04;;;;;;;127.00;39.47;;;0.30;99.90;;;;;;5036800;28;20558;-65
2022/12/11 05:59:31;;;;;;;130.87;41.17;;;0.40;99.90;;;;;;5038232;28;20686;-64
2022/12/11 06:01:58;;;;;;;129.90;38.83;;;0.40;99.90;;;;;;5040118;28;20200;-65
2022/12/11 06:04:25;;;;;;;135.20;40.60;;;0.50;99.90;;;;;;5019161;28;20215;-65
2022/12/11 06:06:55;;;;;;;118.17;38.80;;;0.50;99.90;;;;;;5027842;28;20231;-64
2022/12/11 06:09:22;;;;;;;118.03;42.50;;;0.50;99.90;;;;;;5035582;28;20283;-65
2022/12/11 06:11:49;;;;;;;116.50;44.07;;;0.60;99.90;;;;;;5036419;28;20223;-65
2022/12/11 06:14:16;;;;;;;105.40;37.33;;;0.60;99.90;;;;;;5033422;28;20263;-64
2022/12/11 06:16:43;;;;;;;93.60;33.63;;;0.70;99.90;;;;;;5025024;28;20187;-64
2022/12/11 06:19:17;;;;;;;103.20;35.03;;;0.70;99.90;;;;;;5036528;28;20595;-64
2022/12/11 06:21:44;;;;;;;119.43;38.03;;;0.70;99.90;;;;;;5035243;28;20664;-63
2022/12/11 06:24:12;;;;;;;128.53;36.27;;;0.60;99.90;;;;;;5035990;28;20241;-63
2022/12/11 06:26:39;;;;;;;122.20;37.90;;;0.50;99.90;;;;;;5041138;28;20196;-63
2022/12/11 06:29:06;;;;;;;115.73;35.37;;;0.50;99.90;;;;;;5034879;28;20233;-63
2022/12/11 06:31:39;;;;;;;99.47;33.97;;;0.50;99.90;;;;;;5018550;28;20663;-66
2022/12/11 06:34:06;;;;;;;122.40;37.83;;;0.60;99.90;;;;;;5039002;28;20556;-63
2022/12/11 06:36:33;;;;;;;117.20;36.10;;;0.50;99.90;;;;;;5033643;28;20195;-64
2022/12/11 06:39:01;;;;;;;115.80;38.37;;;0.60;99.90;;;;;;5051053;28;20681;-63
2022/12/11 06:41:28;;;;;;;110.23;36.10;;;0.60;99.90;;;;;;5034030;28;20195;-63
2022/12/11 06:43:55;;;;;;;100.80;33.20;;;0.60;99.90;;;;;;5035523;28;20196;-64
2022/12/11 06:46:22;;;;;;;117.33;38.20;;;0.50;99.90;;;;;;5025863;28;20196;-62
2022/12/11 06:48:49;;;;;;;120.20;37.80;;;0.50;99.90;;;;;;5024968;28;20200;-62
2022/12/11 06:51:21;;;;;;;118.70;36.20;;;0.50;99.90;;;;;;5050145;28;20242;-63
2022/12/11 06:53:53;;;;;;;128.07;37.77;;;0.50;99.90;;;;;;5035562;28;20580;-66
2022/12/11 06:56:21;;;;;;;126.73;38.40;;;0.50;99.90;;;;;;5034600;28;20215;-64
2022/12/11 06:58:48;;;;;;;128.07;36.67;;;0.50;99.90;;;;;;5034985;28;20184;-63
2022/12/11 07:01:24;;;;;;;134.60;36.60;;;0.50;99.90;;;;;;5038780;28;20180;-63
2022/12/11 07:03:58;;;;;;;130.60;38.13;;;0.30;99.90;;;;;;5031878;28;20215;-63
2022/12/11 07:06:27;;;;;;;130.47;36.93;;;0.30;99.90;;;;;;5018688;28;20262;-63
2022/12/11 07:08:54;;;;;;;140.47;38.90;;;0.30;99.90;;;;;;5035337;28;20215;-64
2022/12/11 07:11:24;;;;;;;124.33;39.60;;;0.40;99.90;;;;;;5050972;28;20223;-64
2022/12/11 07:13:51;;;;;;;136.27;38.37;;;0.40;99.90;;;;;;5034875;28;20212;-63
2022/12/11 07:16:18;;;;;;;134.30;39.60;;;0.50;99.90;;;;;;5020073;28;20507;-63
2022/12/11 07:18:48;;;;;;;139.07;41.77;;;0.40;99.90;;;;;;5016860;28;20208;-64
2022/12/11 07:21:16;;;;;;;134.77;38.97;;;0.50;99.90;;;;;;5036658;28;20306;-63
2022/12/11 07:23:43;;;;;;;126.53;37.90;;;0.50;99.90;;;;;;5037949;28;20584;-63
2022/12/11 07:26:13;;;;;;;129.67;37.47;;;0.60;99.90;;;;;;5036050;28;20252;-63
2022/12/11 07:28:42;;;;;;;129.33;38.13;;;0.60;99.90;;;;;;5048790;28;20232;-64
2022/12/11 07:31:13;;;;;;;122.80;37.10;;;0.50;99.90;;;;;;5021065;28;20202;-62
2022/12/11 07:33:41;;;;;;;107.63;33.30;;;0.50;99.90;;;;;;5034356;28;20202;-64
2022/12/11 07:36:10;;;;;;;95.03;33.67;;;0.50;99.90;;;;;;5023723;28;20212;-63
2022/12/11 07:38:38;;;;;;;102.77;34.10;;;0.40;99.90;;;;;;5036296;28;20200;-63
2022/12/11 07:41:08;;;;;;;94.13;30.40;;;0.50;99.90;;;;;;5033626;28;21192;-63
2022/12/11 07:43:35;;;;;;;97.60;34.13;;;0.50;99.90;;;;;;5041184;28;20251;-64
2022/12/11 07:46:09;;;;;;;98.03;35.00;;;0.60;99.90;;;;;;5038553;28;20834;-63
2022/12/11 07:48:38;;;;;;;114.03;35.43;;;0.60;99.90;;;;;;5038225;28;20683;-63
2022/12/11 07:51:11;;;;;;;126.03;40.37;;;0.60;99.90;;;;;;5037179;28;20207;-63
2022/12/11 07:53:38;;;;;;;126.00;40.27;;;0.50;99.90;;;;;;5038829;28;20840;-66
2022/12/11 07:56:05;;;;;;;100.23;33.07;;;0.50;99.90;;;;;;5040396;28;20282;-64
2022/12/11 07:58:32;;;;;;;99.73;33.87;;;0.40;99.90;;;;;;5037367;28;20271;-64
2022/12/11 08:00:59;;;;;;;101.63;33.97;;;0.30;99.90;;;;;;5022522;28;20251;-64
2022/12/11 08:03:26;;;;;;;113.57;37.87;;;0.30;99.90;;;;;;5056051;28;20218;-62
2022/12/11 08:05:53;;;;;;;122.27;40.23;;;0.50;99.90;;;;;;5014169;28;20595;-64
2022/12/11 08:08:20;;;;;;;125.67;38.10;;;0.60;99.90;;;;;;5010023;28;20196;-65
2022/12/11 08:10:48;;;;;;;127.43;43.80;;;0.60;99.90;;;;;;5009583;28;20196;-63
2022/12/11 08:13:14;;;;;;;104.23;35.63;;;0.70;99.90;;;;;;5021639;28;20735;-65
2022/12/11 08:15:42;;;;;;;115.87;34.27;;;0.70;99.90;;;;;;5020885;28;20252;-64
2022/12/11 08:18:09;;;;;;;101.83;35.70;;;0.60;99.90;;;;;;5007962;28;20331;-64
2022/12/11 08:20:45;;;;;;;127.03;39.60;;;0.60;99.90;;;;;;5013655;28;20204;-64
2022/12/11 08:23:24;;;;;;;113.60;35.43;;;0.60;99.90;;;;;;5020136;28;20615;-63
2022/12/11 08:25:54;;;;;;;109.70;35.00;;;0.60;99.90;;;;;;5003537;28;20200;-62
2022/12/11 08:28:21;;;;;;;122.80;39.63;;;0.60;99.90;;;;;;5002864;28;20749;-63
2022/12/11 08:30:48;;;;;;;133.57;45.53;;;0.60;99.90;;;;;;5003214;28;20669;-62
2022/12/11 08:33:15;;;;;;;133.17;41.57;;;0.60;99.90;;;;;;5021140;28;20725;-63
2022/12/11 08:35:44;;;;;;;110.00;38.10;;;0.60;99.90;;;;;;5020864;28;20210;-63
2022/12/11 08:38:11;;;;;;;116.47;36.30;;;0.70;99.90;;;;;;5035831;28;20231;-64
2022/12/11 08:40:38;;;;;;;106.77;34.87;;;0.70;99.90;;;;;;5004328;28;20280;-63
2022/12/11 08:43:07;;;;;;;112.83;35.47;;;0.60;99.90;;;;;;5022767;28;20213;-63
2022/12/11 08:45:35;;;;;;;116.50;36.20;;;0.70;99.90;;;;;;4993342;28;20308;-64
2022/12/11 08:48:03;;;;;;;117.77;35.40;;;0.70;99.90;;;;;;5018592;28;20530;-63
2022/12/11 08:50:30;;;;;;;116.23;37.37;;;0.70;99.90;;;;;;5008665;28;20223;-63
2022/12/11 08:52:57;;;;;;;120.03;35.77;;;0.70;99.90;;;;;;5003886;28;20295;-65
2022/12/11 08:55:27;;;;;;;116.93;39.17;;;0.70;99.90;;;;;;5019211;28;20993;-62
2022/12/11 08:57:54;;;;;;;103.70;34.17;;;0.70;99.90;;;;;;5022909;28;20192;-62
2022/12/11 09:00:21;;;;;;;110.33;36.23;;;0.60;99.90;;;;;;5035021;28;20192;-63
2022/12/11 09:02:48;;;;;;;111.77;34.00;;;0.60;99.90;;;;;;5021727;28;20214;-63
2022/12/11 09:05:15;;;;;;;107.57;35.07;;;0.60;99.90;;;;;;5036232;28;20251;-63
2022/12/11 09:07:43;;;;;;;118.63;35.67;;;0.60;99.90;;;;;;5019809;28;20310;-64
2022/12/11 09:10:10;;;;;;;104.77;34.70;;;0.70;99.90;;;;;;5003001;28;20292;-69
2022/12/11 09:12:38;;;;;;;106.30;36.03;;;0.70;99.90;;;;;;5016847;28;20223;-62
2022/12/11 09:15:08;;;;;;;106.97;36.50;;;0.80;99.90;;;;;;5002549;28;20716;-62
2022/12/11 09:17:36;;;;;;;103.50;33.13;;;0.70;99.90;;;;;;5018245;28;20557;-63
2022/12/11 09:20:04;;;;;;;88.73;32.60;;;0.70;99.90;;;;;;5017836;28;20308;-62
2022/12/11 09:22:33;;;;;;;97.83;32.27;;;0.60;99.90;;;;;;5018619;28;20201;-64
2022/12/11 09:25:02;;;;;;;102.33;32.37;;;0.60;99.90;;;;;;5002712;28;20680;-62
2022/12/11 09:27:29;;;;;;;94.00;30.23;;;0.50;99.90;;;;;;5021992;28;20204;-62
2022/12/11 09:30:00;;;;;;;91.23;33.07;;;0.50;99.90;;;;;;5025515;28;20258;-64
2022/12/11 09:32:32;;;;;;;98.33;33.30;;;0.50;99.90;;;;;;5023739;28;20251;-62
2022/12/11 09:35:00;;;;;;;96.60;32.13;;;0.50;99.90;;;;;;5021553;28;20668;-64
2022/12/11 09:37:27;;;;;;;91.30;31.80;;;0.50;99.90;;;;;;5002552;28;20262;-62
2022/12/11 09:39:58;;;;;;;96.97;32.97;;;0.50;99.90;;;;;;5023166;28;20565;-62
2022/12/11 09:43:09;;;;;;;99.43;38.50;;;0.50;99.90;;;;;;5002416;28;20548;-63
2022/12/11 09:45:38;;;;;;;108.40;34.03;;;0.60;99.90;;;;;;5033876;28;20228;-62
2022/12/11 09:48:08;;;;;;;94.83;34.10;;;0.50;99.90;;;;;;4998157;28;20295;-63
2022/12/11 09:50:35;;;;;;;90.10;31.53;;;0.50;99.90;;;;;;5018051;28;20299;-63
2022/12/11 09:53:15;;;;;;;82.67;32.77;;;0.60;99.90;;;;;;5019734;28;20215;-64
2022/12/11 09:55:49;;;;;;;94.90;35.70;;;0.60;99.90;;;;;;5018143;28;20294;-64
2022/12/11 09:58:36;;;;;;;88.67;32.23;;;0.60;99.90;;;;;;5020172;28;20192;-63
2022/12/11 10:01:15;;;;;;;90.40;31.60;;;0.60;99.90;;;;;;5021123;28;20564;-62
2022/12/11 10:03:49;;;;;;;92.37;31.83;;;0.50;99.90;;;;;;5019459;28;20727;-64
2022/12/11 10:06:31;;;;;;;89.67;32.40;;;0.60;99.90;;;;;;5022651;28;20230;-63
2022/12/11 10:09:23;;;;;;;92.83;33.43;;;0.60;99.90;;;;;;5039837;28;20204;-63
2022/12/11 10:12:11;;;;;;;101.87;41.40;;;0.50;99.90;;;;;;5052684;28;20227;-62
2022/12/11 10:15:23;;;;;;;91.23;34.00;;;0.60;99.90;;;;;;5054313;28;20209;-62
2022/12/11 10:17:52;;;;;;;88.70;30.90;;;0.60;99.90;;;;;;4999586;28;20860;-63
2022/12/11 10:20:22;;;;;;;90.97;32.07;;;0.70;99.90;;;;;;5026656;28;20494;-63
2022/12/11 10:22:51;;;;;;;88.10;31.17;;;0.80;99.90;;;;;;5036537;28;20615;-62
2022/12/11 10:25:34;;;;;;;81.97;32.43;;;0.80;99.90;;;;;;5038135;28;20322;-63
2022/12/11 10:28:13;;;;;;;73.93;28.20;;;0.80;99.90;;;;;;5041700;28;20206;-63
2022/12/11 10:30:51;;;;;;;80.37;32.10;;;0.70;99.90;;;;;;5025957;28;20297;-63
2022/12/11 10:33:19;;;;;;;80.07;30.07;;;0.70;99.90;;;;;;5037858;28;20220;-64
2022/12/11 10:35:54;;;;;;;141.37;67.53;;;0.80;99.90;;;;;;5018381;28;20618;-63
2022/12/11 10:38:41;;;;;;;92.13;35.10;;;0.70;99.90;;;;;;5034776;28;20687;-63
2022/12/11 10:41:11;;;;;;;88.07;33.47;;;0.70;99.90;;;;;;5035519;28;20485;-64
2022/12/11 10:43:44;;;;;;;79.60;30.87;;;0.70;99.90;;;;;;5042842;28;20263;-62
2022/12/11 10:46:24;;;;;;;79.50;32.97;;;0.70;99.90;;;;;;5035183;28;20203;-63
2022/12/11 10:48:56;;;;;;;81.53;32.07;;;0.80;99.90;;;;;;5037787;28;20219;-63
2022/12/11 10:51:35;;;;;;;76.53;32.10;;;0.80;99.90;;;;;;5036450;28;20604;-63
2022/12/11 10:54:24;;;;;;;85.87;32.40;;;0.90;99.90;;;;;;5025759;28;20261;-63
2022/12/11 10:56:51;;;;;;;76.20;37.90;;;0.90;78.60;;;;;;5035877;28;20294;-64
2022/12/11 10:59:24;;;;;;;84.07;32.03;;;0.90;52.60;;;;;;5037698;28;20187;-67
2022/12/11 11:01:52;;;;;;;88.73;39.80;;;0.70;46.20;;;;;;5017630;28;20192;-63
2022/12/11 11:04:36;;;;;;;76.20;31.10;;;0.70;46.30;;;;;;5036548;28;20440;-64
2022/12/11 11:07:14;;;;;;;87.87;35.33;;;0.70;46.50;;;;;;5010113;28;20331;-63
2022/12/11 11:09:41;;;;;;;77.60;32.00;;;0.70;52.00;;;;;;5023701;28;20690;-63
2022/12/11 11:12:26;;;;;;;73.93;29.90;;;0.70;56.90;;;;;;5010369;28;20768;-64
2022/12/11 11:15:04;;;;;;;74.70;30.57;;;0.80;75.80;;;;;;5023198;28;20201;-70
2022/12/11 11:17:39;;;;;;;70.70;30.90;;;0.80;62.30;;;;;;5019992;28;20240;-64
2022/12/11 11:20:23;;;;;;;81.67;34.87;;;0.90;67.20;;;;;;5032728;28;20185;-64
2022/12/11 11:22:54;;;;;;;73.50;29.37;;;0.90;50.50;;;;;;5021031;28;20287;-63
2022/12/11 11:25:26;;;;;;;75.93;31.60;;;0.90;51.30;;;;;;5003465;28;20216;-64
2022/12/11 11:28:00;;;;;;;72.60;29.93;;;0.80;44.20;;;;;;5038037;28;20672;-63
2022/12/11 11:30:33;;;;;;;73.40;31.03;;;0.70;59.70;;;;;;5024219;28;20280;-63
2022/12/11 11:33:18;;;;;;;80.30;32.63;;;0.80;93.70;;;;;;5010742;28;20293;-63
2022/12/11 11:36:04;;;;;;;84.50;33.43;;;0.80;45.00;;;;;;5021154;28;20207;-62
2022/12/11 11:38:32;;;;;;;77.80;30.67;;;0.90;41.80;;;;;;5034645;28;20201;-64
2022/12/11 11:41:11;;;;;;;78.07;32.67;;;0.90;25.80;;;;;;5021217;28;21129;-64
2022/12/11 11:44:03;;;;;;;77.03;32.27;;;0.90;35.80;;;;;;5018725;28;20224;-66
2022/12/11 11:46:58;;;;;;;81.83;33.20;;;0.80;17.40;;;;;;5014196;28;20196;-63
2022/12/11 11:49:28;;;;;;;76.90;31.13;;;0.80;25.80;;;;;;5023364;28;20204;-64
2022/12/11 11:52:20;;;;;;;79.73;32.97;;;0.90;24.90;;;;;;5019498;28;20247;-63
2022/12/11 11:55:05;;;;;;;75.03;30.63;;;1.00;17.70;;;;;;5015289;28;20274;-62
2022/12/11 11:57:44;;;;;;;73.97;30.83;;;0.90;1.00;;;;;;5021749;28;20362;-62
2022/12/11 12:00:17;;;;;;;70.10;32.87;;;0.90;1.00;;;;;;5005902;28;20726;-63
2022/12/11 12:02:45;;;;;;;83.33;33.63;;;0.90;4.70;;;;;;5015782;28;20607;-63
2022/12/11 12:05:13;;;;;;;71.50;30.80;;;0.90;14.80;;;;;;5020054;28;20452;-63
2022/12/11 12:07:59;;;;;;;67.27;29.63;;;0.90;5.10;;;;;;5043250;28;20238;-64
2022/12/11 12:10:39;;;;;;;75.77;31.63;;;0.90;1.00;;;;;;5045998;28;20571;-62
2022/12/11 12:13:17;;;;;;;75.57;31.93;;;0.90;1.00;;;;;;5059410;28;20191;-62
2022/12/11 12:16:11;;;;;;;78.90;34.77;;;1.00;1.00;;;;;;5032458;28;20216;-62
2022/12/11 12:19:07;;;;;;;98.43;47.57;;;1.00;1.00;;;;;;5059523;28;20188;-63
2022/12/11 12:21:35;;;;;;;72.67;35.90;;;0.90;1.00;;;;;;5058200;28;20238;-63
2022/12/11 12:24:41;;;;;;;66.20;32.20;;;1.00;1.00;;;;;;5057714;28;20532;-63
2022/12/11 12:27:28;;;;;;;82.13;41.10;;;1.10;1.00;;;;;;5042437;28;20199;-63
2022/12/11 12:30:17;;;;;;;73.93;37.50;;;1.10;1.00;;;;;;5056123;28;20570;-63
2022/12/11 12:32:58;;;;;;;69.63;37.97;;;1.20;1.00;;;;;;5059067;28;20205;-62
2022/12/11 12:35:41;;;;;;;58.60;33.40;;;1.20;1.00;;;;;;5049295;28;20229;-63
2022/12/11 12:38:17;;;;;;;50.80;26.27;;;1.20;1.00;;;;;;5047347;28;20199;-62
2022/12/11 12:41:12;;;;;;;48.93;26.93;;;1.20;1.00;;;;;;5043113;28;20604;-63
2022/12/11 12:44:05;;;;;;;38.03;22.83;;;1.10;1.00;;;;;;5042617;28;20230;-63
2022/12/11 12:46:44;;;;;;;34.90;20.20;;;1.10;1.00;;;;;;5042797;28;20217;-64
2022/12/11 12:49:26;;;;;;;31.73;19.80;;;1.20;1.00;;;;;;5059217;28;20308;-66
2022/12/11 12:51:54;;;;;;;35.97;21.43;;;1.10;1.00;;;;;;5060894;28;20245;-63
2022/12/11 12:54:24;;;;;;;32.47;20.33;;;1.10;1.00;;;;;;5060295;28;20195;-62
2022/12/11 12:56:51;;;;;;;30.00;19.20;;;1.10;1.00;;;;;;5040601;28;20306;-62
2022/12/11 12:59:23;;;;;;;30.87;19.50;;;1.00;1.00;;;;;;5050458;28;20681;-63
2022/12/11 13:01:55;;;;;;;29.10;18.97;;;1.10;1.00;;;;;;5041767;28;20456;-62
2022/12/11 13:04:42;;;;;;;34.67;22.13;;;1.10;1.00;;;;;;5060822;28;20219;-62
2022/12/11 13:07:28;;;;;;;31.43;18.03;;;1.10;1.00;;;;;;5046013;28;20237;-64
2022/12/11 13:10:06;;;;;;;59.23;33.07;;;1.20;1.00;;;;;;5060323;28;20191;-63
2022/12/11 13:12:44;;;;;;;29.20;19.63;;;1.20;1.00;;;;;;5062446;28;20237;-62